Time;durP1;ratioP1;P1;durP2;ratioP2;P2;SDS_P1;SDS_P2;PMS_P1;PMS_P2;Temp;Humidity;BMP_temperature;BMP_pressure;BME280_temperature;BME280_humidity;BME280_pressure;Samples;Min_cycle;Max_cycle;Signal;HPM_P1;HPM_P2
2022/05/01 00:02:18;;;;;;;29.43;16.80;;;;;;;5.56;100.00;101450.22;7394428;19;20922;-53
2022/05/01 00:04:47;;;;;;;28.40;17.50;;;;;;;5.52;100.00;101429.53;7389795;19;20438;-53
2022/05/01 00:07:17;;;;;;;28.87;19.27;;;;;;;5.51;100.00;101420.06;7393883;19;20382;-49
2022/05/01 00:09:47;;;;;;;28.93;17.97;;;;;;;5.41;100.00;101407.38;7389280;19;20423;-54
2022/05/01 00:12:17;;;;;;;29.83;18.17;;;;;;;5.40;100.00;101395.34;7394342;19;20400;-53
2022/05/01 00:14:49;;;;;;;32.07;18.63;;;;;;;5.37;100.00;101387.44;7387793;19;20424;-53
2022/05/01 00:17:19;;;;;;;35.60;18.90;;;;;;;5.38;100.00;101381.53;7392801;19;20910;-53
2022/05/01 00:19:48;;;;;;;31.67;20.93;;;;;;;5.24;100.00;101368.63;7394056;19;20490;-55
2022/05/01 00:22:21;;;;;;;46.67;21.00;;;;;;;5.12;100.00;101358.41;7393722;19;20401;-50
2022/05/01 00:24:51;;;;;;;35.73;20.10;;;;;;;5.12;100.00;101326.78;7390790;19;20421;-56
2022/05/01 00:27:20;;;;;;;33.50;20.77;;;;;;;5.23;100.00;101315.69;7393448;19;20453;-56
2022/05/01 00:29:52;;;;;;;37.33;22.07;;;;;;;5.20;100.00;101301.78;7393711;19;20417;-52
2022/05/01 00:32:22;;;;;;;31.93;21.50;;;;;;;5.16;100.00;101294.66;7393516;19;20389;-56
2022/05/01 00:37:33;;;;;;;41.63;23.17;;;;;;;4.97;100.00;101272.88;7384913;19;20399;-49
2022/05/01 00:40:03;;;;;;;29.87;21.00;;;;;;;4.93;100.00;101264.06;7393202;19;20401;-51
2022/05/01 00:42:32;;;;;;;37.77;21.77;;;;;;;4.89;100.00;101249.31;7387532;19;20396;-48
2022/05/01 00:45:05;;;;;;;35.87;23.00;;;;;;;4.89;100.00;101227.94;7391590;19;20442;-50
2022/05/01 00:47:34;;;;;;;42.10;23.80;;;;;;;4.84;100.00;101222.50;7387077;19;20367;-52
2022/05/01 00:50:04;;;;;;;38.50;24.70;;;;;;;4.81;100.00;101219.69;7392959;19;20376;-54
2022/05/01 00:52:34;;;;;;;38.87;23.40;;;;;;;4.75;100.00;101219.25;7384652;19;20750;-54
2022/05/01 00:55:03;;;;;;;75.30;39.37;;;;;;;4.85;100.00;101209.84;7391555;19;20415;-50
2022/05/01 00:57:33;;;;;;;54.57;29.53;;;;;;;4.85;100.00;101183.38;7385792;19;20382;-48
2022/05/01 01:00:06;;;;;;;50.80;28.80;;;;;;;4.81;100.00;101149.03;7392614;19;20394;-51
2022/05/01 01:02:37;;;;;;;44.53;27.93;;;;;;;4.78;100.00;101137.69;7387921;19;20385;-51
2022/05/01 01:05:08;;;;;;;37.90;25.93;;;;;;;4.82;100.00;101127.78;7394601;19;20427;-52
2022/05/01 01:07:37;;;;;;;38.63;23.80;;;;;;;4.68;100.00;101115.69;7386323;19;20367;-53
2022/05/01 01:10:07;;;;;;;36.93;24.40;;;;;;;4.69;100.00;101109.78;7392268;19;20371;-54
2022/05/01 01:15:22;;;;;;;39.97;24.20;;;;;;;4.67;100.00;101091.78;7394535;19;20435;-53
2022/05/01 01:17:54;;;;;;;42.83;25.43;;;;;;;4.52;100.00;101091.56;7386506;19;20405;-55
2022/05/01 01:20:28;;;;;;;43.97;24.30;;;;;;;4.48;100.00;101084.50;7392284;19;20404;-56
2022/05/01 01:23:01;;;;;;;35.17;23.50;;;;;;;4.57;100.00;101086.81;7387224;19;20451;-55
2022/05/01 01:25:32;;;;;;;37.90;24.50;;;;;;;4.65;100.00;101080.56;7389982;19;20441;-53
2022/05/01 01:28:03;;;;;;;32.53;23.33;;;;;;;4.53;100.00;101082.25;7384650;19;21500;-59
2022/05/01 01:33:15;;;;;;;36.37;23.00;;;;;;;4.34;100.00;101086.03;7386455;19;20405;-53
2022/05/01 01:35:46;;;;;;;38.70;24.67;;;;;;;4.21;100.00;101088.47;7390864;19;20758;-54
2022/05/01 01:38:19;;;;;;;35.67;25.20;;;;;;;4.17;100.00;101080.59;7390968;19;20430;-53
2022/05/01 01:40:51;;;;;;;40.60;24.97;;;;;;;4.16;100.00;101071.16;7399367;19;20384;-56
2022/05/01 01:43:22;;;;;;;44.80;25.60;;;;;;;4.13;100.00;101065.84;7394056;19;20410;-50
2022/05/01 01:45:52;;;;;;;43.87;26.83;;;;;;;4.10;100.00;101059.63;7396433;19;20775;-55
2022/05/01 01:48:22;;;;;;;40.33;25.50;;;;;;;4.14;100.00;101052.28;7393484;19;20814;-54
2022/05/01 01:50:59;;;;;;;38.77;25.50;;;;;;;4.10;100.00;101037.50;7403346;19;20391;-51
2022/05/01 01:53:33;;;;;;;49.40;25.23;;;;;;;4.10;100.00;101032.41;7392857;19;20732;-59
2022/05/01 01:56:04;;;;;;;48.70;25.50;;;;;;;4.07;100.00;101029.63;7396519;19;20415;-55
2022/05/01 01:58:33;;;;;;;42.40;25.03;;;;;;;4.00;100.00;101012.09;7380785;19;20470;-54
2022/05/01 02:01:03;;;;;;;39.47;23.60;;;;;;;4.00;100.00;101007.00;7398965;19;20370;-53
2022/05/01 02:03:33;;;;;;;37.00;23.77;;;;;;;4.05;100.00;100995.41;7393004;19;20522;-53
2022/05/01 02:06:04;;;;;;;40.97;24.70;;;;;;;3.91;100.00;100987.66;7395761;19;20483;-51
2022/05/01 02:08:36;;;;;;;35.00;25.20;;;;;;;3.85;100.00;100951.47;7392420;19;20937;-56
2022/05/01 02:11:07;;;;;;;40.10;25.53;;;;;;;3.86;100.00;100940.50;7398606;19;20414;-55
2022/05/01 02:13:38;;;;;;;36.87;25.07;;;;;;;3.87;100.00;100929.50;7390174;19;20398;-49
2022/05/01 02:16:08;;;;;;;36.43;25.53;;;;;;;3.92;100.00;100917.06;7395794;19;20416;-54
2022/05/01 02:18:38;;;;;;;40.60;26.70;;;;;;;3.89;100.00;100914.28;7392409;19;20401;-49
2022/05/01 02:23:52;;;;;;;37.67;24.27;;;;;;;3.82;100.00;100895.09;7390300;19;20765;-58
2022/05/01 02:26:21;;;;;;;37.37;24.67;;;;;;;3.82;100.00;100887.44;7395319;19;20407;-50
2022/05/01 02:28:51;;;;;;;36.70;23.00;;;;;;;3.86;100.00;100871.59;7389302;19;20423;-53
2022/05/01 02:31:22;;;;;;;40.57;24.03;;;;;;;3.92;100.00;100853.25;7397396;19;20922;-53
2022/05/01 02:33:51;;;;;;;39.17;23.70;;;;;;;3.93;100.00;100855.00;7390620;19;20811;-50
2022/05/01 02:36:21;;;;;;;35.53;23.00;;;;;;;3.92;100.00;100843.94;7395309;19;20420;-52
2022/05/01 02:38:53;;;;;;;35.13;22.77;;;;;;;3.99;100.00;100831.59;7391885;19;20411;-56
2022/05/01 02:41:22;;;;;;;41.57;24.70;;;;;;;4.02;100.00;100825.03;7400571;19;20425;-55
2022/05/01 02:43:52;;;;;;;36.50;23.33;;;;;;;4.02;100.00;100816.47;7388432;19;20403;-54
2022/05/01 02:46:22;;;;;;;32.93;22.63;;;;;;;4.05;100.00;100812.47;7394689;19;20435;-55
2022/05/01 02:48:52;;;;;;;37.27;23.20;;;;;;;4.02;100.00;100816.47;7392135;19;20415;-53
2022/05/01 02:51:21;;;;;;;31.93;21.63;;;;;;;4.03;100.00;100821.69;7397096;19;20398;-55
2022/05/01 02:53:55;;;;;;;35.20;20.80;;;;;;;4.13;100.00;100810.44;7390182;19;20411;-55
2022/05/01 02:56:24;;;;;;;34.80;20.97;;;;;;;4.08;100.00;100809.22;7394399;19;20394;-48
2022/05/01 02:58:54;;;;;;;35.77;21.67;;;;;;;4.12;100.00;100803.56;7390153;19;20435;-56
2022/05/01 03:01:23;;;;;;;45.37;22.63;;;;;;;4.13;100.00;100802.78;7396614;19;20384;-50
2022/05/01 03:03:53;;;;;;;36.63;22.30;;;;;;;4.21;100.00;100792.19;7390672;19;20468;-53
2022/05/01 03:06:22;;;;;;;39.43;20.73;;;;;;;4.15;100.00;100785.88;7393988;19;20769;-53
2022/05/01 03:08:54;;;;;;;37.40;20.83;;;;;;;4.19;100.00;100785.31;7388915;19;20407;-54
2022/05/01 03:11:24;;;;;;;37.70;21.97;;;;;;;4.15;100.00;100777.34;7396682;19;20391;-54
2022/05/01 03:13:54;;;;;;;38.83;20.90;;;;;;;4.21;100.00;100771.75;7389364;19;20399;-50
2022/05/01 03:16:23;;;;;;;33.00;20.60;;;;;;;4.25;100.00;100753.31;7395820;19;20431;-55
2022/05/01 03:24:19;;;;;;;35.27;21.97;;;;;;;4.21;100.00;100753.88;7389995;19;20406;-55
2022/05/01 03:26:49;;;;;;;31.73;20.27;;;;;;;4.19;100.00;100758.88;7396183;19;20397;-54
2022/05/01 03:29:20;;;;;;;30.10;19.80;;;;;;;4.24;100.00;100743.84;7389851;19;20942;-50
2022/05/01 03:31:50;;;;;;;34.17;19.90;;;;;;;4.28;100.00;100748.41;7395679;19;20381;-52
2022/05/01 03:34:20;;;;;;;33.00;19.80;;;;;;;4.22;100.00;100760.75;7389817;19;20426;-53
2022/05/01 03:36:50;;;;;;;28.83;19.67;;;;;;;4.21;100.00;100759.00;7395813;19;20367;-55
2022/05/01 03:39:22;;;;;;;34.80;20.93;;;;;;;4.29;100.00;100752.72;7388056;19;20431;-54
2022/05/01 03:41:52;;;;;;;37.27;21.30;;;;;;;4.32;100.00;100745.28;7395355;19;20724;-53
2022/05/01 03:44:21;;;;;;;36.53;21.70;;;;;;;4.26;100.00;100750.84;7387893;19;20415;-52
2022/05/01 03:46:51;;;;;;;35.70;20.40;;;;;;;4.31;100.00;100753.72;7397412;19;20710;-54
2022/05/01 03:49:20;;;;;;;35.43;20.80;;;;;;;4.35;100.00;100748.03;7389779;19;20429;-52
2022/05/01 03:51:49;;;;;;;29.43;20.73;;;;;;;4.35;100.00;100755.69;7395101;19;20375;-53
2022/05/01 03:54:22;;;;;;;31.43;20.00;;;;;;;4.30;100.00;100751.94;7388470;19;20765;-53
2022/05/01 03:56:51;;;;;;;35.00;20.57;;;;;;;4.27;100.00;100757.75;7397808;19;20463;-53
2022/05/01 03:59:21;;;;;;;29.47;18.87;;;;;;;4.30;100.00;100754.47;7383802;19;20774;-53
2022/05/01 04:01:50;;;;;;;43.17;25.50;;;;;;;4.25;100.00;100758.44;7394871;19;20719;-53
2022/05/01 04:04:21;;;;;;;36.03;21.33;;;;;;;4.18;100.00;100758.00;7387714;19;20402;-55
2022/05/01 04:06:50;;;;;;;33.37;21.20;;;;;;;4.20;100.00;100760.66;7394273;19;20396;-52
2022/05/01 04:09:24;;;;;;;55.43;24.40;;;;;;;4.25;100.00;100753.31;7388731;19;20774;-58
2022/05/01 04:11:54;;;;;;;37.83;21.23;;;;;;;4.20;100.00;100760.66;7394559;19;20398;-53
2022/05/01 04:14:23;;;;;;;34.90;20.47;;;;;;;4.09;100.00;100757.38;7386695;19;20415;-49
2022/05/01 04:16:55;;;;;;;34.10;17.97;;;;;;;4.05;100.00;100757.94;7394426;19;20394;-55
2022/05/01 04:19:24;;;;;;;29.30;19.50;;;;;;;4.11;100.00;100760.03;7387885;19;20506;-55
2022/05/01 04:21:54;;;;;;;29.60;19.50;;;;;;;4.09;100.00;100770.13;7394104;19;20921;-53
2022/05/01 04:24:26;;;;;;;29.07;18.90;;;;;;;4.13;100.00;100768.69;7387948;19;20412;-51
2022/05/01 04:26:55;;;;;;;33.67;18.90;;;;;;;3.94;100.00;100771.66;7394367;19;20380;-54
2022/05/01 04:29:42;;;;;;;38.10;19.80;;;;;;;3.98;100.00;100771.97;7387482;19;20957;-53
2022/05/01 04:32:16;;;;;;;32.07;19.47;;;;;;;3.92;100.00;100769.91;7393576;19;20414;-50
2022/05/01 04:34:45;;;;;;;32.43;20.57;;;;;;;3.86;100.00;100774.56;7387118;19;20407;-57
2022/05/01 04:37:15;;;;;;;30.17;19.27;;;;;;;3.78;100.00;100773.13;7393982;19;20386;-51
2022/05/01 04:39:48;;;;;;;24.60;18.30;;;;;;;3.75;100.00;100776.34;7386901;19;20441;-56
2022/05/01 04:42:18;;;;;;;31.87;19.57;;;;;;;3.75;100.00;100778.03;7393431;19;20399;-52
2022/05/01 04:44:48;;;;;;;28.20;19.03;;;;;;;3.75;100.00;100765.28;7388110;19;20391;-48
2022/05/01 04:47:17;;;;;;;34.13;19.30;;;;;;;3.72;100.00;100765.06;7393496;19;20385;-56
2022/05/01 04:49:46;;;;;;;32.67;19.00;;;;;;;3.69;100.00;100763.16;7388441;19;20419;-56
2022/05/01 04:52:17;;;;;;;34.10;19.17;;;;;;;3.78;100.00;100760.38;7393235;19;20379;-51
2022/05/01 04:54:49;;;;;;;26.93;17.60;;;;;;;3.78;100.00;100755.28;7385209;19;20948;-51
2022/05/01 04:57:18;;;;;;;31.00;17.40;;;;;;;3.84;100.00;100753.13;7392970;19;20387;-49
2022/05/01 04:59:48;;;;;;;26.43;17.57;;;;;;;3.87;100.00;100755.03;7390276;19;20423;-49
2022/05/01 05:02:17;;;;;;;30.57;17.10;;;;;;;3.82;100.00;100757.25;7392870;19;20391;-50
2022/05/01 05:04:48;;;;;;;27.00;17.37;;;;;;;3.69;100.00;100752.09;7385321;19;20810;-54
2022/05/01 05:07:19;;;;;;;29.63;17.47;;;;;;;3.68;100.00;100748.63;7395502;19;20929;-51
2022/05/01 05:09:54;;;;;;;29.03;17.90;;;;;;;3.74;100.00;100738.84;7392425;19;20411;-56
2022/05/01 05:12:25;;;;;;;26.60;17.70;;;;;;;3.67;100.00;100751.06;7394342;19;20375;-56
2022/05/01 05:14:58;;;;;;;26.40;17.87;;;;;;;3.76;100.00;100738.97;7398318;19;20408;-54
2022/05/01 05:17:31;;;;;;;24.80;17.97;;;;;;;3.77;100.00;100727.97;7395563;19;20369;-57
2022/05/01 05:20:01;;;;;;;26.83;16.27;;;;;;;3.86;100.00;100717.50;7398101;19;20387;-52
2022/05/01 05:22:30;;;;;;;23.83;16.83;;;;;;;3.91;100.00;100717.03;7392927;19;20383;-51
2022/05/01 05:25:02;;;;;;;26.03;18.30;;;;;;;4.02;100.00;100659.06;7397984;19;20407;-53
2022/05/01 05:27:32;;;;;;;32.00;17.10;;;;;;;4.04;100.00;100619.19;7391097;19;20910;-55
2022/05/01 05:30:01;;;;;;;29.70;18.17;;;;;;;4.13;100.00;100611.25;7399391;19;20387;-52
2022/05/01 05:32:37;;;;;;;26.93;17.87;;;;;;;4.14;100.00;100602.78;7394424;19;21291;-52
2022/05/01 05:35:08;;;;;;;26.10;17.17;;;;;;;4.18;100.00;100599.66;7397606;19;20404;-54
2022/05/01 05:37:37;;;;;;;23.60;17.20;;;;;;;4.30;100.00;100603.78;7392595;19;20390;-51
2022/05/01 05:40:12;;;;;;;23.47;16.40;;;;;;;4.37;100.00;100598.31;7397886;19;20384;-55
2022/05/01 05:42:41;;;;;;;26.60;17.03;;;;;;;4.40;100.00;100601.03;7393165;19;20371;-50
2022/05/01 05:45:12;;;;;;;28.73;16.17;;;;;;;4.55;100.00;100600.25;7401680;19;20769;-51
2022/05/01 05:47:41;;;;;;;28.10;16.70;;;;;;;4.69;100.00;100608.78;7393697;19;20463;-57
2022/05/01 05:50:12;;;;;;;24.97;16.40;;;;;;;4.78;100.00;100614.50;7399095;19;20387;-51
2022/05/01 05:52:42;;;;;;;20.50;14.23;;;;;;;5.08;100.00;100614.63;7397675;19;20380;-49
2022/05/01 05:55:14;;;;;;;20.60;14.43;;;;;;;5.16;100.00;100609.09;7397234;19;20397;-52
2022/05/01 05:57:43;;;;;;;35.37;15.20;;;;;;;5.35;100.00;100608.53;7391268;19;20435;-51
2022/05/01 06:00:14;;;;;;;21.97;10.97;;;;;;;5.76;100.00;100616.94;7397263;19;20748;-52
2022/05/01 06:02:44;;;;;;;33.90;15.47;;;;;;;5.86;100.00;100618.34;7388855;19;20411;-54
2022/05/01 06:05:14;;;;;;;13.20;9.97;;;;;;;6.05;100.00;100618.66;7392318;19;21255;-52
2022/05/01 06:07:43;;;;;;;27.03;16.33;;;;;;;6.56;100.00;100622.34;7385550;19;20423;-48
2022/05/01 06:10:15;;;;;;;12.40;8.57;;;;;;;6.52;100.00;100633.22;7393938;19;20380;-52
2022/05/01 06:12:46;;;;;;;20.80;9.90;;;;;;;6.66;100.00;100646.81;7390353;19;20414;-55
2022/05/01 06:15:21;;;;;;;15.97;8.30;;;;;;;6.60;100.00;100653.38;7391125;19;20419;-52
2022/05/01 06:17:51;;;;;;;14.53;7.77;;;;;;;6.51;100.00;100652.84;7387837;19;20400;-56
2022/05/01 06:20:21;;;;;;;13.50;7.50;;;;;;;6.46;100.00;100659.41;7394069;19;20909;-50
2022/05/01 06:22:52;;;;;;;15.60;7.60;;;;;;;6.48;100.00;100676.59;7389617;19;20986;-52
2022/05/01 06:25:24;;;;;;;25.03;11.70;;;;;;;6.60;100.00;100683.22;7393814;19;20426;-55
2022/05/01 06:27:53;;;;;;;11.63;7.43;;;;;;;6.59;100.00;100686.59;7390173;19;20416;-51
2022/05/01 06:30:23;;;;;;;12.90;7.83;;;;;;;6.54;100.00;100698.25;7394947;19;20367;-56
2022/05/01 06:32:53;;;;;;;12.57;8.40;;;;;;;6.45;100.00;100708.88;7386992;19;20421;-55
2022/05/01 06:35:22;;;;;;;17.53;9.10;;;;;;;6.40;100.00;100721.44;7393405;19;20417;-57
2022/05/01 06:37:52;;;;;;;18.97;9.70;;;;;;;6.41;100.00;100725.75;7385772;19;20493;-52
2022/05/01 06:40:24;;;;;;;19.30;12.73;;;;;;;6.59;100.00;100735.31;7393942;19;20392;-52
2022/05/01 06:42:53;;;;;;;19.67;9.50;;;;;;;6.55;100.00;100751.31;7387589;19;20418;-54
2022/05/01 06:45:23;;;;;;;13.97;8.80;;;;;;;6.61;100.00;100746.53;7392820;19;20420;-57
2022/05/01 06:47:52;;;;;;;14.97;9.50;;;;;;;6.64;100.00;100751.84;7388633;19;20428;-53
2022/05/01 06:50:22;;;;;;;20.20;8.70;;;;;;;6.68;100.00;100764.06;7394419;19;20382;-57
2022/05/01 06:52:51;;;;;;;15.73;8.80;;;;;;;6.72;100.00;100760.00;7389088;19;20421;-50
2022/05/01 06:55:25;;;;;;;24.97;10.17;;;;;;;6.95;100.00;100762.97;7392564;19;20500;-56
2022/05/01 06:57:55;;;;;;;14.67;7.37;;;;;;;6.85;100.00;100770.16;7387379;19;20421;-58
2022/05/01 07:00:25;;;;;;;13.87;6.27;;;;;;;6.91;100.00;100767.03;7392741;19;20410;-54
2022/05/01 07:02:56;;;;;;;21.20;7.17;;;;;;;7.08;100.00;100775.69;7391305;19;20783;-54
2022/05/01 07:05:26;;;;;;;12.90;7.77;;;;;;;7.14;100.00;100776.03;7396471;19;20421;-56
2022/05/01 07:07:55;;;;;;;14.93;8.97;;;;;;;7.48;100.00;100786.41;7388899;19;20410;-54
2022/05/01 07:10:28;;;;;;;17.93;7.37;;;;;;;7.45;100.00;100796.50;7393806;19;20397;-54
2022/05/01 07:12:57;;;;;;;10.97;5.60;;;;;;;7.46;100.00;100811.09;7388230;19;20418;-54
2022/05/01 07:15:26;;;;;;;12.60;5.60;;;;;;;7.51;100.00;100823.41;7254767;19;2733432;-59
2022/05/01 07:17:56;;;;;;;10.63;4.50;;;;;;;7.62;100.00;100834.25;7394541;19;20584;-58
2022/05/01 07:20:25;;;;;;;9.20;4.93;;;;;;;7.67;100.00;100844.78;7395147;19;20462;-58
2022/05/01 07:22:55;;;;;;;30.63;11.80;;;;;;;7.60;100.00;100865.78;7390839;19;20498;-57
2022/05/01 07:25:27;;;;;;;19.80;5.00;;;;;;;7.55;100.00;100878.38;7393664;19;20434;-59
2022/05/01 07:27:57;;;;;;;11.30;4.47;;;;;;;7.56;100.00;100888.75;7391329;19;20424;-54
2022/05/01 07:30:26;;;;;;;37.73;12.90;;;;;;;7.68;100.00;100896.25;7395291;19;20401;-58
2022/05/01 07:32:56;;;;;;;8.53;4.60;;;;;;;7.81;100.00;100904.63;7388607;19;20440;-58
2022/05/01 07:35:26;;;;;;;13.33;6.20;;;;;;;7.87;100.00;100915.25;7393011;19;20491;-53
2022/05/01 07:38:02;;;;;;;7.70;4.27;;;;;;;7.99;100.00;100940.72;7389310;19;20411;-56
2022/05/01 07:40:34;;;;;;;10.57;4.40;;;;;;;8.06;100.00;100947.09;7394479;19;20470;-52
2022/05/01 07:43:04;;;;;;;10.37;4.97;;;;;;;8.13;100.00;100956.91;7390733;19;20426;-55
2022/05/01 07:45:34;;;;;;;10.73;5.10;;;;;;;8.14;100.00;100966.38;7394048;19;20439;-49
2022/05/01 07:48:13;;;;;;;9.13;5.10;;;;;;;8.27;100.00;100977.34;7392182;19;20422;-49
2022/05/01 07:50:43;;;;;;;21.93;9.60;;;;;;;8.35;100.00;100979.53;7395104;19;20398;-53
2022/05/01 07:53:14;;;;;;;44.20;16.83;;;;;;;8.63;100.00;100981.03;7387934;19;20421;-53
2022/05/01 07:55:46;;;;;;;8.10;5.70;;;;;;;8.67;100.00;100994.06;7393025;19;20938;-51
2022/05/01 07:58:16;;;;;;;13.30;5.77;;;;;;;8.77;100.00;101016.94;7385300;19;20415;-52
2022/05/01 08:00:46;;;;;;;8.73;5.10;;;;;;;8.83;100.00;101052.38;7398411;19;20407;-56
2022/05/01 08:05:58;;;;;;;11.73;7.10;;;;;;;9.05;100.00;101059.53;7392500;19;20415;-57
2022/05/01 08:08:33;;;;;;;11.17;5.37;;;;;;;9.16;100.00;101075.56;7386390;19;20498;-58
2022/05/01 08:11:06;;;;;;;13.23;5.63;;;;;;;9.18;100.00;101085.13;7394472;19;20454;-54
2022/05/01 08:13:35;;;;;;;9.60;4.93;;;;;;;9.23;100.00;101100.81;7385438;19;20407;-56
2022/05/01 08:16:05;;;;;;;10.67;5.73;;;;;;;9.33;100.00;101107.31;7392652;19;20416;-54
2022/05/01 08:21:17;;;;;;;15.13;5.77;;;;;;;9.49;100.00;101150.22;7393655;19;20383;-52
2022/05/01 08:23:47;;;;;;;9.73;4.47;;;;;;;9.52;100.00;101185.56;7386312;19;20414;-59
2022/05/01 08:26:21;;;;;;;10.10;5.10;;;;;;;9.66;100.00;101194.03;7392382;19;20420;-56
2022/05/01 08:28:54;;;;;;;5.93;3.90;;;;;;;9.69;100.00;101202.81;7388623;19;20949;-57
2022/05/01 08:31:24;;;;;;;8.73;4.63;;;;;;;9.77;100.00;101210.94;7393760;19;20387;-57
2022/05/01 08:33:54;;;;;;;7.13;4.60;;;;;;;9.93;100.00;101219.47;7385737;19;20415;-51
2022/05/01 08:36:24;;;;;;;10.50;4.00;;;;;;;10.01;100.00;101238.81;7395413;19;20430;-51
2022/05/01 08:38:53;;;;;;;14.30;5.20;;;;;;;10.04;100.00;101293.09;7388246;19;20411;-53
2022/05/01 08:41:27;;;;;;;10.97;4.40;;;;;;;10.07;100.00;101346.50;7392785;19;20459;-54
2022/05/01 08:43:56;;;;;;;7.20;2.80;;;;;;;10.22;100.00;101349.00;7385702;19;20419;-57
2022/05/01 08:46:43;;;;;;;22.37;7.00;;;;;;;10.21;100.00;101375.63;7390431;19;20412;-60
2022/05/01 08:49:15;;;;;;;14.20;3.80;;;;;;;10.19;100.00;101387.53;7388221;19;20410;-51
2022/05/01 08:51:46;;;;;;;9.83;3.60;;;;;;;10.40;100.00;101382.63;7393193;19;20403;-51
2022/05/01 08:54:17;;;;;;;6.23;2.50;;;;;;;10.48;100.00;101406.28;7387668;19;20410;-56
2022/05/01 08:56:49;;;;;;;8.70;2.60;;;;;;;10.26;100.00;101482.50;7392819;19;20392;-50
2022/05/01 08:59:20;;;;;;;6.60;2.33;;;;;;;10.37;100.00;101527.78;7386024;19;20770;-58
2022/05/01 09:01:52;;;;;;;8.37;1.93;;;;;;;10.32;100.00;101585.09;7394011;19;20486;-54
2022/05/01 09:04:22;;;;;;;4.20;1.97;;;;;;;10.38;100.00;101609.56;7383928;19;20410;-57
2022/05/01 09:06:51;;;;;;;5.63;2.40;;;;;;;10.59;100.00;101631.34;7390554;19;20384;-59
2022/05/01 09:09:23;;;;;;;7.93;2.33;;;;;;;10.42;100.00;101643.25;7388145;19;20430;-53
2022/05/01 09:14:38;;;;;;;3.60;2.00;;;;;;;10.78;100.00;101679.72;7385692;19;20441;-56
2022/05/01 09:17:15;;;;;;;4.80;2.20;;;;;;;10.92;100.00;101704.59;7392702;19;20399;-56
2022/05/01 09:19:47;;;;;;;14.83;6.93;;;;;;;11.28;100.00;101703.94;7386478;19;20802;-53
2022/05/01 09:22:18;;;;;;;14.60;7.77;;;;;;;11.28;100.00;101736.66;7391530;19;20384;-52
2022/05/01 09:24:52;;;;;;;5.00;2.30;;;;;;;11.39;100.00;101751.00;7385111;19;20510;-57
2022/05/01 09:27:30;;;;;;;7.20;2.37;;;;;;;10.91;100.00;101766.47;7392380;19;20393;-52
2022/05/01 09:30:10;;;;;;;5.60;2.10;;;;;;;10.85;100.00;101777.34;7391756;19;20411;-54
2022/05/01 09:32:41;;;;;;;6.67;2.30;;;;;;;11.15;100.00;101777.31;7384045;19;20375;-50
2022/05/01 09:35:18;;;;;;;6.77;1.80;;;;;;;11.38;100.00;101782.84;7390509;19;20418;-55
2022/05/01 09:37:48;;;;;;;10.97;4.17;;;;;;;12.02;100.00;101784.50;7386739;19;20836;-57
2022/05/01 09:40:31;;;;;;;15.80;8.93;;;;;;;12.70;100.00;101791.38;7395728;19;20404;-56
2022/05/01 09:43:03;;;;;;;22.30;11.60;;;;;;;12.46;100.00;101824.69;7383070;19;20404;-54
2022/05/01 09:45:34;;;;;;;14.13;7.87;;;;;;;12.18;100.00;101837.09;7389631;19;20437;-56
2022/05/01 09:48:22;;;;;;;41.10;14.40;;;;;;;11.78;100.00;101840.97;7385287;19;20767;-59
2022/05/01 09:50:52;;;;;;;8.50;3.80;;;;;;;11.78;100.00;101853.03;7391464;19;20391;-54
2022/05/01 09:53:21;;;;;;;9.53;5.20;;;;;;;11.66;100.00;101855.81;7385624;19;20424;-53
2022/05/01 09:56:02;;;;;;;67.97;41.57;;;;;;;11.44;100.00;101858.09;7389344;19;20932;-59
2022/05/01 09:58:38;;;;;;;23.87;13.50;;;;;;;11.37;100.00;101863.75;7392132;19;21122;-56
2022/05/01 10:01:11;;;;;;;27.87;11.90;;;;;;;11.47;100.00;101863.47;7399049;19;20400;-56
2022/05/01 10:03:46;;;;;;;33.73;14.50;;;;;;;11.47;100.00;101865.16;7388272;19;20866;-57
2022/05/01 10:06:17;;;;;;;24.10;12.37;;;;;;;11.73;100.00;101860.53;7395836;19;20501;-57
2022/05/01 10:08:48;;;;;;;13.67;6.27;;;;;;;11.81;100.00;101871.28;7389627;19;20415;-60
2022/05/01 10:11:19;;;;;;;13.70;6.60;;;;;;;11.70;100.00;101863.81;7398630;19;20382;-56
2022/05/01 10:13:51;;;;;;;8.20;4.60;;;;;;;11.95;100.00;101860.00;7388730;19;20428;-55
2022/05/01 10:16:20;;;;;;;2.80;1.50;;;;;;;12.04;100.00;101869.09;7395578;19;20949;-53
2022/05/01 10:18:57;;;;;;;5.37;1.70;;;;;;;11.81;100.00;101871.28;7393251;19;20517;-54
2022/05/01 10:21:48;;;;;;;4.23;1.27;;;;;;;11.80;100.00;101872.97;7397696;19;20376;-55
2022/05/01 10:24:18;;;;;;;8.47;1.90;;;;;;;11.89;100.00;101864.81;7391571;19;20486;-58
2022/05/01 10:26:54;;;;;;;5.20;2.03;;;;;;;11.96;100.00;101861.78;7399870;19;20781;-55
2022/05/01 10:29:37;;;;;;;25.17;7.07;;;;;;;12.01;100.00;101869.78;7389833;19;20427;-52
2022/05/01 10:32:47;;;;;;;7.73;2.40;;;;;;;12.29;100.00;101867.00;7398407;19;20393;-59
2022/05/01 10:35:45;;;;;;;5.20;2.20;;;;;;;12.60;100.00;101878.03;7394474;19;20953;-53
2022/05/01 10:38:21;;;;;;;3.30;1.33;;;;;;;12.59;100.00;101870.19;7391631;19;20423;-55
2022/05/01 10:40:53;;;;;;;2.80;1.10;;;;;;;12.77;100.00;101868.53;7397424;19;20461;-54
2022/05/01 10:43:28;;;;;;;3.90;1.40;;;;;;;12.82;100.00;101864.50;7390338;19;20411;-53
2022/05/01 10:46:01;;;;;;;3.63;1.47;;;;;;;12.49;100.00;101864.56;7395633;19;20410;-51
2022/05/01 10:48:33;;;;;;;6.40;1.90;;;;;;;12.85;100.00;101853.41;7391082;19;20424;-53
2022/05/01 10:51:34;;;;;;;3.23;1.50;;;;;;;12.63;99.25;101862.69;7397275;19;20400;-57
2022/05/01 10:54:34;;;;;;;4.20;1.47;;;;;;;13.13;100.00;101859.06;7390850;19;20434;-55
2022/05/01 10:57:18;;;;;;;5.13;1.70;;;;;;;13.04;98.10;101852.63;7395933;19;20382;-50
2022/05/01 10:59:50;;;;;;;3.00;1.17;;;;;;;12.72;98.31;101862.22;7392786;19;20956;-53
2022/05/01 11:02:31;;;;;;;4.70;1.80;;;;;;;12.61;98.73;101859.09;7396095;19;20381;-57
2022/05/01 11:05:01;;;;;;;14.10;5.20;;;;;;;12.41;100.00;101860.69;7393711;19;20440;-54
2022/05/01 11:07:33;;;;;;;5.40;1.80;;;;;;;12.52;99.63;101862.13;7393222;19;20427;-54
2022/05/01 11:10:03;;;;;;;6.83;1.70;;;;;;;12.46;98.25;101864.38;7394685;19;20400;-50
2022/05/01 11:12:33;;;;;;;10.77;3.50;;;;;;;12.24;99.83;101863.28;7390124;19;20380;-53
2022/05/01 11:15:04;;;;;;;29.50;9.13;;;;;;;12.47;99.65;101858.44;7394666;19;20436;-57
2022/05/01 11:17:55;;;;;;;4.07;1.43;;;;;;;12.37;98.44;101859.63;7392703;19;20403;-55
2022/05/01 11:20:35;;;;;;;7.70;2.30;;;;;;;12.20;97.31;101850.97;7395438;19;20459;-55
2022/05/01 11:23:29;;;;;;;3.53;1.50;;;;;;;12.50;100.00;101849.91;7390944;19;20414;-51
2022/05/01 11:26:10;;;;;;;5.40;1.30;;;;;;;12.68;100.00;101848.25;7393922;19;20981;-57
2022/05/01 11:28:53;;;;;;;3.60;1.40;;;;;;;12.46;97.05;101854.03;7389827;19;20780;-53
2022/05/01 11:31:44;;;;;;;3.23;1.40;;;;;;;12.32;97.21;101845.56;7395831;19;20782;-52
2022/05/01 11:35:03;;;;;;;4.70;1.40;;;;;;;12.17;100.00;101845.66;7391940;19;20462;-53
2022/05/01 11:37:49;;;;;;;4.37;1.70;;;;;;;12.38;100.00;101848.47;7388303;19;20376;-52
2022/05/01 11:40:27;;;;;;;6.70;2.57;;;;;;;12.53;100.00;101845.78;7395493;19;20388;-55
2022/05/01 11:43:18;;;;;;;4.00;1.53;;;;;;;12.61;100.00;101850.47;7387440;19;20440;-53
2022/05/01 11:45:47;;;;;;;4.13;1.40;;;;;;;12.49;100.00;101843.84;7393591;19;20430;-59
2022/05/01 11:48:18;;;;;;;5.50;2.40;;;;;;;12.63;100.00;101847.16;7390063;19;20933;-53
2022/05/01 11:50:51;;;;;;;3.30;1.33;;;;;;;12.66;98.18;101842.13;7394715;19;20392;-52
2022/05/01 11:53:25;;;;;;;3.73;1.43;;;;;;;12.56;96.02;101845.94;7389644;19;20415;-57
2022/05/01 12:04:25;;;;;;;7.80;4.03;;;;;;;12.51;96.06;101839.63;7385770;19;20452;-53
2022/05/01 12:07:07;;;;;;;3.90;1.50;;;;;;;12.45;99.43;101834.13;7394156;19;20380;-52
2022/05/01 12:09:41;;;;;;;4.37;1.30;;;;;;;12.32;100.00;101835.22;7387709;19;20763;-55